Time;durP1;ratioP1;P1;durP2;ratioP2;P2;SDS_P1;SDS_P2;PMS_P1;PMS_P2;Temp;Humidity;BMP_temperature;BMP_pressure;BME280_temperature;BME280_humidity;BME280_pressure;Samples;Min_cycle;Max_cycle;Signal;HPM_P1;HPM_P2
2023/08/26 00:01:13;;;;;;;0.10;0.10;;;14.40;57.70;;;;;;5031372;28;20199;-54
2023/08/26 00:03:44;;;;;;;0.10;0.10;;;14.40;57.70;;;;;;5031244;28;20220;-49
2023/08/26 00:06:15;;;;;;;0.10;0.10;;;14.50;57.80;;;;;;5031721;28;20203;-54
2023/08/26 00:08:45;;;;;;;0.10;0.10;;;14.50;57.90;;;;;;5031173;28;20742;-58
2023/08/26 00:11:18;;;;;;;0.10;0.10;;;14.50;57.80;;;;;;5031526;28;20204;-54
2023/08/26 00:13:49;;;;;;;0.10;0.10;;;14.50;57.80;;;;;;5031448;28;20207;-58
2023/08/26 00:16:19;;;;;;;0.10;0.10;;;14.60;57.90;;;;;;5031255;28;20203;-55
2023/08/26 00:18:50;;;;;;;0.10;0.10;;;14.60;57.90;;;;;;5031447;28;20212;-57
2023/08/26 00:21:21;;;;;;;0.10;0.10;;;14.60;57.90;;;;;;5031275;28;20195;-54
2023/08/26 00:23:52;;;;;;;0.10;0.10;;;14.60;57.90;;;;;;5030854;28;20224;-58
2023/08/26 00:26:24;;;;;;;0.10;0.10;;;14.60;57.90;;;;;;5030984;28;20204;-55
2023/08/26 00:28:56;;;;;;;0.10;0.10;;;14.70;57.90;;;;;;5030785;28;20216;-57
2023/08/26 00:31:26;;;;;;;0.10;0.10;;;14.70;58.00;;;;;;5031219;28;20196;-56
2023/08/26 00:33:57;;;;;;;0.10;0.10;;;14.80;58.00;;;;;;5031423;28;20463;-58
2023/08/26 00:36:28;;;;;;;0.10;0.10;;;14.80;58.00;;;;;;5031370;28;20648;-54
2023/08/26 00:38:59;;;;;;;0.10;0.10;;;14.80;58.00;;;;;;5031429;28;20688;-55
2023/08/26 00:41:31;;;;;;;0.05;0.05;;;14.80;57.90;;;;;;5030721;28;20672;-62
2023/08/26 00:44:02;;;;;;;0.10;0.10;;;14.80;58.10;;;;;;5030435;28;20227;-54
2023/08/26 00:46:33;;;;;;;0.10;0.10;;;14.90;58.40;;;;;;5030858;28;20287;-57
2023/08/26 00:49:04;;;;;;;0.10;0.10;;;15.00;59.00;;;;;;5031062;28;20212;-55
2023/08/26 00:51:35;;;;;;;0.10;0.10;;;15.00;59.30;;;;;;5031241;28;20207;-56
2023/08/26 00:54:07;;;;;;;0.10;0.10;;;15.10;59.30;;;;;;5030975;28;20287;-55
2023/08/26 00:56:40;;;;;;;0.00;0.00;;;15.10;59.40;;;;;;5030778;28;20204;-57
2023/08/26 00:59:11;;;;;;;0.10;0.10;;;15.10;59.40;;;;;;5032838;28;20230;-51
2023/08/26 01:01:43;;;;;;;0.10;0.10;;;15.20;59.40;;;;;;5034779;28;20192;-49
2023/08/26 01:04:16;;;;;;;0.10;0.10;;;15.20;59.30;;;;;;5034488;28;20227;-57
2023/08/26 01:06:46;;;;;;;0.10;0.10;;;15.20;59.20;;;;;;5034633;28;20690;-57
2023/08/26 01:09:18;;;;;;;0.10;0.10;;;15.30;59.20;;;;;;5034007;28;20221;-51
2023/08/26 01:11:59;;;;;;;0.10;0.10;;;15.30;59.10;;;;;;5034610;28;20674;-52
2023/08/26 01:14:36;;;;;;;0.00;0.00;;;15.30;59.10;;;;;;5034589;28;20196;-55
2023/08/26 01:17:09;;;;;;;0.10;0.10;;;15.30;59.00;;;;;;5034601;28;20203;-56
2023/08/26 01:19:41;;;;;;;0.10;0.10;;;15.40;58.90;;;;;;5033878;28;20224;-48
2023/08/26 01:22:13;;;;;;;0.10;0.10;;;15.40;58.90;;;;;;5034586;28;20200;-54
2023/08/26 01:24:45;;;;;;;0.10;0.10;;;15.50;58.90;;;;;;5034238;28;20220;-53
2023/08/26 01:27:16;;;;;;;0.10;0.10;;;15.50;58.90;;;;;;5034234;28;20216;-53
2023/08/26 01:29:46;;;;;;;0.10;0.10;;;15.50;58.80;;;;;;5034236;28;20220;-52
2023/08/26 01:32:24;;;;;;;0.10;0.10;;;15.50;58.70;;;;;;5033845;28;20562;-54
2023/08/26 01:34:59;;;;;;;0.10;0.10;;;15.50;58.70;;;;;;5033339;28;20697;-55
2023/08/26 01:37:31;;;;;;;0.10;0.10;;;15.60;58.70;;;;;;5033320;28;20203;-50
2023/08/26 01:40:06;;;;;;;0.10;0.10;;;15.60;58.70;;;;;;5034087;28;20219;-52
2023/08/26 01:42:42;;;;;;;0.10;0.10;;;15.60;58.60;;;;;;5033970;28;20575;-53
2023/08/26 01:45:13;;;;;;;0.10;0.10;;;15.60;58.60;;;;;;5033744;28;20223;-53
2023/08/26 01:47:44;;;;;;;0.10;0.10;;;15.70;58.60;;;;;;5033935;28;20649;-53
2023/08/26 01:50:14;;;;;;;0.10;0.10;;;15.70;59.10;;;;;;5033827;28;20216;-52
2023/08/26 01:52:45;;;;;;;0.10;0.10;;;15.70;58.50;;;;;;5034010;28;20200;-54
2023/08/26 01:55:17;;;;;;;0.10;0.10;;;15.70;58.50;;;;;;5033017;28;20283;-51
2023/08/26 01:57:48;;;;;;;0.10;0.10;;;15.80;58.50;;;;;;5033598;28;20442;-55
2023/08/26 02:00:19;;;;;;;0.10;0.10;;;15.80;58.50;;;;;;5033067;28;20231;-55
2023/08/26 02:02:50;;;;;;;0.03;0.03;;;15.80;58.40;;;;;;5033592;28;20201;-52
2023/08/26 02:05:20;;;;;;;0.10;0.10;;;15.80;58.40;;;;;;5033623;28;20704;-50
2023/08/26 02:07:51;;;;;;;0.10;0.10;;;15.90;58.40;;;;;;5033482;28;20203;-51
2023/08/26 02:10:23;;;;;;;0.10;0.10;;;15.90;58.30;;;;;;5032447;28;20242;-51
2023/08/26 02:12:54;;;;;;;0.10;0.10;;;15.90;58.30;;;;;;5033414;28;20207;-53
2023/08/26 02:15:25;;;;;;;0.05;0.05;;;16.00;58.30;;;;;;5033454;28;20196;-56
2023/08/26 02:17:55;;;;;;;0.10;0.10;;;16.00;58.30;;;;;;5033248;28;20571;-54
2023/08/26 02:20:26;;;;;;;0.10;0.10;;;16.00;58.20;;;;;;5033602;28;20196;-56
2023/08/26 02:22:56;;;;;;;0.10;0.10;;;16.00;58.20;;;;;;5033392;28;20217;-54
2023/08/26 02:25:30;;;;;;;0.10;0.10;;;16.10;58.20;;;;;;5033118;28;20231;-56
2023/08/26 02:28:01;;;;;;;0.10;0.10;;;16.10;58.10;;;;;;5032915;28;20204;-49
2023/08/26 02:30:33;;;;;;;0.10;0.10;;;16.10;58.10;;;;;;5032692;28;20196;-54
2023/08/26 02:33:06;;;;;;;0.00;0.00;;;16.10;58.00;;;;;;5032872;28;20208;-54
2023/08/26 02:35:38;;;;;;;0.10;0.10;;;16.10;57.90;;;;;;5032849;28;20202;-52
2023/08/26 02:38:08;;;;;;;0.00;0.00;;;16.20;58.00;;;;;;5032703;28;20204;-54
2023/08/26 02:40:41;;;;;;;0.10;0.10;;;16.20;57.90;;;;;;5033160;28;20203;-53
2023/08/26 02:43:11;;;;;;;0.10;0.10;;;16.20;57.90;;;;;;5032959;28;20207;-53
2023/08/26 02:45:42;;;;;;;0.10;0.10;;;16.30;57.90;;;;;;5033500;28;20220;-53
2023/08/26 02:48:13;;;;;;;0.10;0.10;;;16.30;57.90;;;;;;5032355;28;20208;-51
2023/08/26 02:50:43;;;;;;;0.10;0.10;;;16.30;57.90;;;;;;5032754;28;20199;-55
2023/08/26 02:53:14;;;;;;;0.10;0.10;;;16.40;58.00;;;;;;5032275;28;20196;-57
2023/08/26 02:55:47;;;;;;;0.10;0.10;;;16.40;57.90;;;;;;5032439;28;20528;-56
2023/08/26 02:58:17;;;;;;;0.00;0.00;;;16.40;57.90;;;;;;5032094;28;20204;-57
2023/08/26 03:00:48;;;;;;;0.03;0.03;;;16.50;58.00;;;;;;5032858;28;20192;-55
2023/08/26 03:03:19;;;;;;;0.10;0.10;;;16.50;57.90;;;;;;5032318;28;20605;-53
2023/08/26 03:05:49;;;;;;;0.10;0.10;;;16.50;57.90;;;;;;5032815;28;20261;-54
2023/08/26 03:08:20;;;;;;;0.10;0.10;;;16.60;57.90;;;;;;5031972;28;20599;-55
2023/08/26 03:11:02;;;;;;;0.10;0.10;;;16.60;57.90;;;;;;5031890;28;20192;-55
2023/08/26 03:13:33;;;;;;;0.10;0.10;;;16.60;57.90;;;;;;5031805;28;20192;-53
2023/08/26 03:16:10;;;;;;;0.10;0.10;;;16.60;57.90;;;;;;5031801;28;20246;-55
2023/08/26 03:18:41;;;;;;;0.10;0.10;;;16.70;57.90;;;;;;5031692;28;20222;-53
2023/08/26 03:21:12;;;;;;;0.10;0.10;;;16.70;57.90;;;;;;5031917;28;20410;-52
2023/08/26 03:23:42;;;;;;;0.10;0.10;;;16.80;57.90;;;;;;5031646;28;20326;-55
2023/08/26 03:26:15;;;;;;;0.10;0.10;;;16.80;57.90;;;;;;5031886;28;20419;-50
2023/08/26 03:28:45;;;;;;;0.15;0.15;;;16.80;57.80;;;;;;5031585;28;20219;-54
2023/08/26 03:31:16;;;;;;;0.10;0.10;;;16.80;57.60;;;;;;5031349;28;20193;-55
2023/08/26 03:33:47;;;;;;;0.10;0.10;;;16.90;57.60;;;;;;5031878;28;20216;-55
2023/08/26 03:36:17;;;;;;;0.05;0.05;;;16.90;57.50;;;;;;5031829;28;20608;-52
2023/08/26 03:38:48;;;;;;;0.10;0.10;;;16.90;57.50;;;;;;5032339;28;20223;-49
2023/08/26 03:41:20;;;;;;;0.00;0.00;;;17.00;57.50;;;;;;5031611;28;20196;-52
2023/08/26 03:43:51;;;;;;;0.00;0.00;;;17.00;57.40;;;;;;5031515;28;20653;-50
2023/08/26 03:46:22;;;;;;;0.03;0.03;;;17.00;57.40;;;;;;5031418;28;20232;-55
2023/08/26 03:48:52;;;;;;;0.10;0.10;;;17.10;57.40;;;;;;5031591;28;20220;-52
2023/08/26 03:51:23;;;;;;;0.10;0.10;;;17.10;57.30;;;;;;5031611;28;20202;-56
2023/08/26 03:53:54;;;;;;;0.10;0.10;;;17.10;57.30;;;;;;5030875;28;20192;-54
2023/08/26 03:56:26;;;;;;;0.10;0.10;;;17.20;57.30;;;;;;5031152;28;20571;-52
2023/08/26 03:58:58;;;;;;;0.10;0.10;;;17.20;57.30;;;;;;5030967;28;20220;-52
2023/08/26 04:01:29;;;;;;;0.20;0.20;;;17.20;57.20;;;;;;5030697;28;20652;-55
2023/08/26 04:04:00;;;;;;;0.10;0.10;;;17.20;57.20;;;;;;5031491;28;20652;-54
2023/08/26 04:06:31;;;;;;;0.00;0.00;;;17.30;57.10;;;;;;5031415;28;20587;-53
2023/08/26 04:09:03;;;;;;;0.10;0.10;;;17.30;57.10;;;;;;5031439;28;20219;-53
2023/08/26 04:11:36;;;;;;;0.10;0.10;;;17.30;56.90;;;;;;5030938;28;20671;-54
2023/08/26 04:14:06;;;;;;;0.10;0.10;;;17.30;56.90;;;;;;5031206;28;20195;-56
2023/08/26 04:16:37;;;;;;;0.10;0.10;;;17.40;56.90;;;;;;5031090;28;20200;-51
2023/08/26 04:19:08;;;;;;;0.17;0.17;;;17.40;56.90;;;;;;5031316;28;20220;-51
2023/08/26 04:21:38;;;;;;;0.10;0.10;;;17.40;56.90;;;;;;5031524;28;20236;-56
2023/08/26 04:24:09;;;;;;;0.10;0.10;;;17.40;56.90;;;;;;5031400;28;20196;-52
2023/08/26 04:26:42;;;;;;;0.10;0.10;;;17.50;56.80;;;;;;5031193;28;20734;-54
2023/08/26 04:29:12;;;;;;;0.10;0.10;;;17.50;56.80;;;;;;5031126;28;20224;-52
2023/08/26 04:31:43;;;;;;;0.00;0.00;;;17.50;56.70;;;;;;5031141;28;20687;-55
2023/08/26 04:34:14;;;;;;;0.00;0.00;;;17.50;56.70;;;;;;5033644;28;20211;-53
2023/08/26 04:36:44;;;;;;;0.10;0.10;;;17.50;56.70;;;;;;5035042;28;20204;-51
2023/08/26 04:39:17;;;;;;;0.00;0.00;;;17.60;56.70;;;;;;5035582;28;20216;-53
2023/08/26 04:41:49;;;;;;;0.10;0.10;;;17.60;56.60;;;;;;5035293;28;20200;-53
2023/08/26 04:44:20;;;;;;;0.03;0.03;;;17.60;56.60;;;;;;5035215;28;20192;-54
2023/08/26 04:46:52;;;;;;;0.10;0.10;;;17.60;56.50;;;;;;5034945;28;20634;-55
2023/08/26 04:49:23;;;;;;;0.10;0.10;;;17.70;56.50;;;;;;5034635;28;20219;-52
2023/08/26 04:51:56;;;;;;;0.10;0.10;;;17.70;56.50;;;;;;5035073;28;20253;-51
2023/08/26 04:54:26;;;;;;;0.00;0.00;;;17.70;56.50;;;;;;5034745;28;20204;-51
2023/08/26 04:56:59;;;;;;;0.10;0.10;;;17.70;57.10;;;;;;5034823;28;20203;-52
2023/08/26 04:59:29;;;;;;;0.10;0.10;;;17.70;56.50;;;;;;5034878;28;20219;-56
2023/08/26 05:02:00;;;;;;;0.10;0.10;;;17.70;56.40;;;;;;5034778;28;20680;-57
2023/08/26 05:04:31;;;;;;;0.10;0.10;;;17.80;56.40;;;;;;5035029;28;20200;-52
2023/08/26 05:07:01;;;;;;;0.03;0.03;;;17.80;56.40;;;;;;5034485;28;20220;-55
2023/08/26 05:09:32;;;;;;;0.10;0.10;;;17.80;56.30;;;;;;5033840;28;20212;-52
2023/08/26 05:12:05;;;;;;;0.00;0.00;;;17.80;56.20;;;;;;5034269;28;20207;-54
2023/08/26 05:14:36;;;;;;;0.10;0.10;;;17.80;56.20;;;;;;5034659;28;20561;-52
2023/08/26 05:17:07;;;;;;;0.10;0.10;;;17.80;56.30;;;;;;5034724;28;20253;-56
2023/08/26 05:19:37;;;;;;;0.10;0.10;;;17.80;56.30;;;;;;5033687;28;20219;-57
2023/08/26 05:22:08;;;;;;;0.10;0.10;;;17.80;56.30;;;;;;5034001;28;20191;-51
2023/08/26 05:24:39;;;;;;;0.03;0.03;;;17.80;56.30;;;;;;5034136;28;20200;-57
2023/08/26 05:27:11;;;;;;;0.10;0.10;;;17.80;56.30;;;;;;5033796;28;20236;-54
2023/08/26 05:29:42;;;;;;;0.10;0.10;;;17.80;56.30;;;;;;5034406;28;20692;-53
2023/08/26 05:32:12;;;;;;;0.10;0.10;;;17.80;56.30;;;;;;5034451;28;20440;-52
2023/08/26 05:34:43;;;;;;;0.20;0.20;;;17.90;56.30;;;;;;5034282;28;20261;-53
2023/08/26 05:37:13;;;;;;;0.00;0.00;;;17.90;56.30;;;;;;5034476;28;20540;-55
2023/08/26 05:39:44;;;;;;;0.00;0.00;;;17.90;56.20;;;;;;5034318;28;20220;-55
2023/08/26 05:42:17;;;;;;;0.00;0.00;;;17.90;56.20;;;;;;5025094;28;20204;-55
2023/08/26 05:44:47;;;;;;;0.10;0.10;;;17.80;56.20;;;;;;5033491;28;20200;-56
2023/08/26 05:47:18;;;;;;;0.00;0.00;;;17.90;56.20;;;;;;5035242;28;20700;-57
2023/08/26 05:49:48;;;;;;;0.00;0.00;;;17.90;56.10;;;;;;5033677;28;20691;-55
2023/08/26 05:52:19;;;;;;;0.00;0.00;;;17.90;56.00;;;;;;5032983;28;20192;-57
2023/08/26 05:54:50;;;;;;;0.10;0.10;;;17.80;55.90;;;;;;5031711;28;20188;-55
2023/08/26 05:57:22;;;;;;;0.10;0.10;;;17.90;55.90;;;;;;5033779;28;20560;-56
2023/08/26 05:59:53;;;;;;;0.10;0.10;;;17.80;55.90;;;;;;5033265;28;20221;-58
2023/08/26 06:02:23;;;;;;;0.00;0.00;;;17.80;55.90;;;;;;5033133;28;20199;-51
2023/08/26 06:04:54;;;;;;;0.10;0.10;;;17.80;55.90;;;;;;5032553;28;20363;-56
2023/08/26 06:07:25;;;;;;;0.10;0.10;;;17.80;55.90;;;;;;5031695;28;20228;-56
2023/08/26 06:09:55;;;;;;;0.10;0.10;;;17.80;55.90;;;;;;5031333;28;20220;-53
2023/08/26 06:12:28;;;;;;;0.20;0.20;;;17.80;55.80;;;;;;5032588;28;20613;-55
2023/08/26 06:14:58;;;;;;;0.10;0.10;;;17.80;55.70;;;;;;5032733;28;20606;-48
2023/08/26 06:17:29;;;;;;;0.15;0.15;;;17.80;55.60;;;;;;5032533;28;20204;-56
2023/08/26 06:20:00;;;;;;;0.03;0.03;;;17.80;55.60;;;;;;5032560;28;20211;-57
2023/08/26 06:22:30;;;;;;;0.10;0.10;;;17.80;55.50;;;;;;5032145;28;20196;-57
2023/08/26 06:25:01;;;;;;;0.15;0.15;;;17.70;55.30;;;;;;5030971;28;20551;-55
2023/08/26 06:27:34;;;;;;;0.10;0.10;;;17.70;55.30;;;;;;5032661;28;20679;-57
2023/08/26 06:30:04;;;;;;;0.10;0.10;;;17.70;55.30;;;;;;5029465;28;20219;-58
2023/08/26 06:32:35;;;;;;;0.10;0.10;;;17.70;55.30;;;;;;5031887;28;20200;-57
2023/08/26 06:35:06;;;;;;;0.10;0.10;;;17.70;55.20;;;;;;5032251;28;20188;-54
2023/08/26 06:37:37;;;;;;;0.00;0.00;;;17.70;55.30;;;;;;5031739;28;20228;-49
2023/08/26 06:40:08;;;;;;;0.10;0.10;;;17.60;55.20;;;;;;5031285;28;20216;-51
2023/08/26 06:42:40;;;;;;;0.10;0.10;;;17.60;55.30;;;;;;5032551;28;20200;-49
2023/08/26 06:45:11;;;;;;;0.03;0.03;;;17.60;55.30;;;;;;5030506;28;20200;-54
2023/08/26 06:47:42;;;;;;;0.10;0.10;;;17.60;55.20;;;;;;5031221;28;20653;-54
2023/08/26 06:50:13;;;;;;;0.10;0.10;;;17.60;55.30;;;;;;5031262;28;20227;-56
2023/08/26 06:52:43;;;;;;;0.10;0.10;;;17.60;55.30;;;;;;5032153;28;20203;-58
2023/08/26 06:55:14;;;;;;;0.10;0.10;;;17.50;55.20;;;;;;5030771;28;20201;-56
2023/08/26 06:57:47;;;;;;;0.10;0.10;;;17.50;55.20;;;;;;5030397;28;20208;-57
2023/08/26 07:00:18;;;;;;;0.10;0.10;;;17.50;55.20;;;;;;5030373;28;20695;-57
2023/08/26 07:02:48;;;;;;;0.10;0.10;;;17.50;55.20;;;;;;5031264;28;20200;-56
2023/08/26 07:05:19;;;;;;;0.10;0.10;;;17.50;55.10;;;;;;5017732;28;20231;-57
2023/08/26 07:07:50;;;;;;;0.10;0.10;;;17.50;55.20;;;;;;5031628;28;20200;-58
2023/08/26 07:10:20;;;;;;;0.00;0.00;;;17.40;55.10;;;;;;5030586;28;20216;-58
2023/08/26 07:12:53;;;;;;;0.00;0.00;;;17.40;55.20;;;;;;5031318;28;20200;-57
2023/08/26 07:15:24;;;;;;;0.10;0.10;;;17.40;55.20;;;;;;5031294;28;20268;-56
2023/08/26 07:17:55;;;;;;;0.00;0.00;;;17.40;55.20;;;;;;5029029;28;20196;-54
2023/08/26 07:20:26;;;;;;;0.10;0.10;;;17.40;55.20;;;;;;5031581;28;20223;-57
2023/08/26 07:22:57;;;;;;;0.10;0.10;;;17.40;55.30;;;;;;5031458;28;20389;-56
2023/08/26 07:25:27;;;;;;;0.10;0.10;;;17.30;55.20;;;;;;5030618;28;20196;-51
2023/08/26 07:28:00;;;;;;;0.10;0.10;;;17.30;55.20;;;;;;5031108;28;20224;-54
2023/08/26 07:30:31;;;;;;;0.10;0.10;;;17.30;55.20;;;;;;5032299;28;20192;-57
2023/08/26 07:33:01;;;;;;;0.10;0.10;;;17.30;55.20;;;;;;5030122;28;20207;-57
2023/08/26 07:35:32;;;;;;;0.10;0.10;;;17.30;55.20;;;;;;5029373;28;20196;-58
2023/08/26 07:38:02;;;;;;;0.10;0.10;;;17.30;55.20;;;;;;5032085;28;20211;-53
2023/08/26 07:40:33;;;;;;;0.00;0.00;;;17.30;55.20;;;;;;5032014;28;20199;-55
2023/08/26 07:43:06;;;;;;;0.10;0.10;;;17.20;55.20;;;;;;5031538;28;20196;-55
2023/08/26 07:45:37;;;;;;;0.10;0.10;;;17.20;55.20;;;;;;5031574;28;20606;-55
2023/08/26 07:48:08;;;;;;;0.10;0.10;;;17.20;55.20;;;;;;5031327;28;20196;-56
2023/08/26 07:50:38;;;;;;;0.00;0.00;;;17.20;55.20;;;;;;5030724;28;20652;-54
2023/08/26 07:53:09;;;;;;;0.10;0.10;;;17.10;55.20;;;;;;5031752;28;20196;-56
2023/08/26 07:55:39;;;;;;;0.10;0.10;;;17.10;55.20;;;;;;5031191;28;20211;-55
2023/08/26 07:58:12;;;;;;;0.08;0.08;;;17.10;55.20;;;;;;5031198;28;20200;-54
2023/08/26 08:00:43;;;;;;;0.10;0.10;;;17.10;55.20;;;;;;5031267;28;20200;-56
2023/08/26 08:03:13;;;;;;;0.10;0.10;;;17.10;55.20;;;;;;5030855;28;20200;-56
2023/08/26 08:05:44;;;;;;;0.00;0.00;;;17.10;55.30;;;;;;5031056;28;20254;-56
2023/08/26 08:08:14;;;;;;;0.10;0.10;;;17.00;55.30;;;;;;5030233;28;20211;-57
2023/08/26 08:10:45;;;;;;;0.10;0.10;;;17.00;55.30;;;;;;5030843;28;20265;-55
2023/08/26 08:13:21;;;;;;;0.10;0.10;;;17.00;55.30;;;;;;5031225;28;20188;-58
2023/08/26 08:15:51;;;;;;;0.10;0.10;;;17.00;55.30;;;;;;5031380;28;20200;-54
2023/08/26 08:18:22;;;;;;;0.10;0.10;;;17.00;55.30;;;;;;5031771;28;20227;-52
2023/08/26 08:20:53;;;;;;;0.10;0.10;;;17.00;55.30;;;;;;5031782;28;20196;-57
2023/08/26 08:23:24;;;;;;;0.10;0.10;;;17.00;55.30;;;;;;5030790;28;20207;-57
2023/08/26 08:25:54;;;;;;;0.10;0.10;;;16.90;55.30;;;;;;5030898;28;20199;-57
2023/08/26 08:28:27;;;;;;;0.10;0.10;;;16.90;55.30;;;;;;5011947;28;20216;-57
2023/08/26 08:30:58;;;;;;;0.13;0.13;;;16.90;55.30;;;;;;5011715;28;20657;-54
2023/08/26 08:33:29;;;;;;;0.10;0.10;;;16.90;55.30;;;;;;5011680;28;20208;-58
2023/08/26 08:36:00;;;;;;;0.10;0.10;;;16.90;55.30;;;;;;5011434;28;20207;-58
2023/08/26 08:38:31;;;;;;;0.10;0.10;;;16.80;55.30;;;;;;5010982;28;20221;-53
2023/08/26 08:41:01;;;;;;;0.10;0.10;;;16.80;55.30;;;;;;5011923;28;20219;-54
2023/08/26 08:43:36;;;;;;;0.10;0.10;;;16.80;55.30;;;;;;5011652;28;20201;-54
2023/08/26 08:46:06;;;;;;;0.10;0.10;;;16.80;55.30;;;;;;5011570;28;20204;-56
2023/08/26 08:48:38;;;;;;;0.10;0.10;;;16.80;55.30;;;;;;5011498;28;20225;-54
2023/08/26 08:51:09;;;;;;;0.00;0.00;;;16.80;55.30;;;;;;5011699;28;20205;-56
2023/08/26 08:53:46;;;;;;;0.10;0.10;;;16.70;55.90;;;;;;5010957;28;20228;-58
2023/08/26 08:56:19;;;;;;;0.10;0.10;;;16.70;55.30;;;;;;5013633;28;20238;-57
2023/08/26 08:58:55;;;;;;;0.20;0.20;;;16.70;55.30;;;;;;5031078;28;20227;-54
2023/08/26 09:01:28;;;;;;;0.08;0.08;;;16.70;55.30;;;;;;5030879;28;20648;-50
2023/08/26 09:03:58;;;;;;;0.13;0.13;;;16.70;55.30;;;;;;5031021;28;20554;-51
2023/08/26 09:06:29;;;;;;;0.10;0.10;;;16.60;55.30;;;;;;5030861;28;20212;-56
2023/08/26 09:09:05;;;;;;;0.10;0.10;;;16.60;55.30;;;;;;5029869;28;20220;-57
2023/08/26 09:11:35;;;;;;;0.00;0.00;;;16.60;55.30;;;;;;5028930;28;20207;-52
2023/08/26 09:14:08;;;;;;;0.10;0.10;;;16.60;55.30;;;;;;5031052;28;20207;-53
2023/08/26 09:16:39;;;;;;;0.10;0.10;;;16.60;55.30;;;;;;5030949;28;20207;-58
2023/08/26 09:19:10;;;;;;;0.10;0.10;;;16.60;55.30;;;;;;5031044;28;20212;-57
2023/08/26 09:21:44;;;;;;;0.10;0.10;;;16.60;55.30;;;;;;5034470;28;20204;-57
2023/08/26 09:24:15;;;;;;;0.10;0.10;;;16.60;55.30;;;;;;5033301;28;20398;-54
2023/08/26 09:26:50;;;;;;;0.10;0.10;;;16.50;55.30;;;;;;5033465;28;20246;-54
2023/08/26 09:29:23;;;;;;;0.10;0.10;;;16.50;55.30;;;;;;5033841;28;20219;-55
2023/08/26 09:31:55;;;;;;;0.10;0.10;;;16.50;55.30;;;;;;5033466;28;20196;-51
2023/08/26 09:34:30;;;;;;;0.10;0.10;;;16.50;55.40;;;;;;5033904;28;20208;-52
2023/08/26 09:37:01;;;;;;;0.10;0.10;;;16.50;55.40;;;;;;5033798;28;20672;-49
2023/08/26 09:39:32;;;;;;;0.10;0.10;;;16.50;55.30;;;;;;5033584;28;20227;-51
2023/08/26 09:42:03;;;;;;;0.10;0.10;;;16.50;55.40;;;;;;5033809;28;20199;-54
2023/08/26 09:44:35;;;;;;;0.00;0.00;;;16.40;55.30;;;;;;5034136;28;20200;-55
2023/08/26 09:47:06;;;;;;;0.10;0.10;;;16.40;55.30;;;;;;5033901;28;20224;-51
2023/08/26 09:49:38;;;;;;;0.20;0.20;;;16.40;55.30;;;;;;5033904;28;20224;-52
2023/08/26 09:52:09;;;;;;;0.10;0.10;;;16.40;55.30;;;;;;5033603;28;20200;-56
2023/08/26 09:54:40;;;;;;;0.10;0.10;;;16.40;55.30;;;;;;5031252;28;20203;-55
2023/08/26 09:57:11;;;;;;;0.10;0.10;;;16.30;55.30;;;;;;5033707;28;20387;-54
2023/08/26 09:59:43;;;;;;;0.10;0.10;;;16.30;55.30;;;;;;5032970;28;20220;-55
2023/08/26 10:02:22;;;;;;;0.10;0.10;;;16.30;55.30;;;;;;5033492;28;20207;-55
2023/08/26 10:04:57;;;;;;;0.05;0.05;;;16.30;55.40;;;;;;5033362;28;20564;-54
2023/08/26 10:07:30;;;;;;;0.10;0.10;;;16.30;55.40;;;;;;5032574;28;20238;-55
2023/08/26 10:10:06;;;;;;;0.10;0.10;;;16.30;55.40;;;;;;5033323;28;20220;-56
2023/08/26 10:12:42;;;;;;;0.10;0.10;;;16.30;55.40;;;;;;5033183;28;20207;-57
2023/08/26 10:15:17;;;;;;;0.10;0.10;;;16.30;55.40;;;;;;5033569;28;20199;-54
2023/08/26 10:17:51;;;;;;;0.10;0.10;;;16.30;55.40;;;;;;5033610;28;20195;-54
2023/08/26 10:20:22;;;;;;;0.10;0.10;;;16.30;55.40;;;;;;5033002;28;20577;-57
2023/08/26 10:22:53;;;;;;;0.10;0.10;;;16.20;55.40;;;;;;5032735;28;20192;-55
2023/08/26 10:25:24;;;;;;;0.10;0.10;;;16.20;55.40;;;;;;5033337;28;20570;-51
2023/08/26 10:27:55;;;;;;;0.10;0.10;;;16.20;55.40;;;;;;5033634;28;20597;-58
2023/08/26 10:30:28;;;;;;;0.10;0.10;;;16.10;55.30;;;;;;5032856;28;20227;-54
2023/08/26 10:33:02;;;;;;;0.10;0.10;;;16.10;55.30;;;;;;5032719;28;20215;-56
2023/08/26 10:35:33;;;;;;;0.10;0.10;;;16.20;55.40;;;;;;5032767;28;20206;-58
2023/08/26 10:38:14;;;;;;;0.13;0.13;;;16.10;55.30;;;;;;5032347;28;20250;-56
2023/08/26 10:40:44;;;;;;;0.10;0.10;;;16.10;55.40;;;;;;5033354;28;20196;-58
2023/08/26 10:43:16;;;;;;;0.10;0.10;;;16.10;55.40;;;;;;5032930;28;20200;-52
2023/08/26 10:45:54;;;;;;;0.10;0.10;;;16.10;55.40;;;;;;5032752;28;20676;-56
2023/08/26 10:48:27;;;;;;;0.10;0.10;;;16.10;55.40;;;;;;5033231;28;20317;-58
2023/08/26 10:51:02;;;;;;;0.10;0.10;;;16.10;55.50;;;;;;5032843;28;20196;-57
2023/08/26 10:53:44;;;;;;;0.10;0.10;;;16.10;55.50;;;;;;5032778;28;20198;-57
2023/08/26 10:56:21;;;;;;;0.00;0.00;;;16.00;55.50;;;;;;5032323;28;20219;-56
2023/08/26 10:58:52;;;;;;;0.00;0.00;;;16.00;55.40;;;;;;5032450;28;20219;-58
2023/08/26 11:01:24;;;;;;;0.10;0.10;;;16.00;55.50;;;;;;5032457;28;20199;-56
2023/08/26 11:03:55;;;;;;;0.10;0.10;;;16.00;55.50;;;;;;5031849;28;20537;-56
2023/08/26 11:06:26;;;;;;;0.10;0.10;;;16.00;55.50;;;;;;5032043;28;20678;-54
2023/08/26 11:08:58;;;;;;;0.10;0.10;;;16.00;55.50;;;;;;5032257;28;20810;-56
2023/08/26 11:11:29;;;;;;;0.00;0.00;;;16.00;55.50;;;;;;5032482;28;20210;-54
2023/08/26 11:13:59;;;;;;;0.00;0.00;;;16.00;55.50;;;;;;5032530;28;20250;-56
2023/08/26 11:16:32;;;;;;;0.10;0.10;;;15.90;55.40;;;;;;5032105;28;20232;-58
2023/08/26 11:19:03;;;;;;;0.00;0.00;;;15.90;55.40;;;;;;5032168;28;20593;-57
2023/08/26 11:21:37;;;;;;;0.10;0.10;;;15.90;55.40;;;;;;5031496;28;20206;-56
2023/08/26 11:24:08;;;;;;;0.10;0.10;;;15.90;55.40;;;;;;5032220;28;20561;-57
2023/08/26 11:26:39;;;;;;;0.10;0.10;;;15.90;55.50;;;;;;5031857;28;20565;-57
2023/08/26 11:29:12;;;;;;;0.10;0.10;;;15.90;55.50;;;;;;5029426;28;20747;-52
2023/08/26 11:31:44;;;;;;;0.03;0.03;;;15.90;55.50;;;;;;5012091;28;20609;-54
2023/08/26 11:34:15;;;;;;;0.10;0.10;;;15.90;55.50;;;;;;5027280;28;20712;-56
2023/08/26 11:36:45;;;;;;;0.10;0.10;;;15.90;55.50;;;;;;5030935;28;20204;-53
2023/08/26 11:39:20;;;;;;;0.10;0.10;;;15.90;55.60;;;;;;5031302;28;20711;-56
2023/08/26 11:41:51;;;;;;;0.10;0.10;;;15.90;55.60;;;;;;5030335;28;20533;-53
2023/08/26 11:44:22;;;;;;;0.10;0.10;;;15.90;55.50;;;;;;5032060;28;20546;-55
2023/08/26 11:46:57;;;;;;;0.10;0.10;;;15.80;55.50;;;;;;5030791;28;20196;-54
2023/08/26 11:49:29;;;;;;;0.10;0.10;;;15.80;55.50;;;;;;5030631;28;20223;-55
2023/08/26 11:52:01;;;;;;;0.00;0.00;;;15.80;55.50;;;;;;5030636;28;20200;-57
2023/08/26 11:54:32;;;;;;;0.03;0.03;;;15.80;55.50;;;;;;5031710;28;20567;-57
2023/08/26 11:57:04;;;;;;;0.10;0.10;;;15.80;55.50;;;;;;5031461;28;20207;-56
2023/08/26 11:59:43;;;;;;;0.03;0.03;;;15.80;55.50;;;;;;5031450;28;20227;-55
2023/08/26 12:02:28;;;;;;;0.10;0.10;;;15.80;55.60;;;;;;5030635;28;20738;-52
2023/08/26 12:05:02;;;;;;;0.10;0.10;;;15.80;55.60;;;;;;5031461;28;20560;-56
2023/08/26 12:07:33;;;;;;;0.10;0.10;;;15.80;55.60;;;;;;5030742;28;20601;-50
2023/08/26 12:10:12;;;;;;;0.10;0.10;;;15.80;55.60;;;;;;5031097;28;20216;-58
2023/08/26 12:12:44;;;;;;;0.10;0.10;;;15.70;55.60;;;;;;5031178;28;20200;-54
2023/08/26 12:15:16;;;;;;;0.10;0.10;;;15.70;55.50;;;;;;5031121;28;20656;-56
2023/08/26 12:17:51;;;;;;;0.10;0.10;;;15.70;55.60;;;;;;5031139;28;20200;-52
2023/08/26 12:20:26;;;;;;;0.10;0.10;;;15.70;55.60;;;;;;5031548;28;20238;-52
2023/08/26 12:22:57;;;;;;;0.00;0.00;;;15.70;55.60;;;;;;5031627;28;20628;-57
2023/08/26 12:25:30;;;;;;;0.10;0.10;;;15.70;55.60;;;;;;5031683;28;20499;-57
2023/08/26 12:28:14;;;;;;;0.10;0.10;;;15.70;55.60;;;;;;5030815;28;20569;-52
2023/08/26 12:30:45;;;;;;;0.00;0.00;;;15.70;55.60;;;;;;5031292;28;20291;-54
2023/08/26 12:33:18;;;;;;;0.10;0.10;;;15.70;55.60;;;;;;5031283;28;20319;-54
2023/08/26 12:35:51;;;;;;;0.10;0.10;;;15.70;55.60;;;;;;5031235;28;20279;-57
2023/08/26 12:38:21;;;;;;;0.10;0.10;;;15.60;55.60;;;;;;5031227;28;20192;-57
2023/08/26 12:40:52;;;;;;;0.10;0.10;;;15.70;55.60;;;;;;5031603;28;20193;-57
2023/08/26 12:43:23;;;;;;;0.10;0.10;;;15.70;55.60;;;;;;5031062;28;20207;-54
2023/08/26 12:45:53;;;;;;;0.10;0.10;;;15.60;55.60;;;;;;5030924;28;20262;-57
2023/08/26 12:48:26;;;;;;;0.10;0.10;;;15.60;55.60;;;;;;5030783;28;20232;-53
2023/08/26 12:50:57;;;;;;;0.00;0.00;;;15.60;55.70;;;;;;5031325;28;20678;-56
2023/08/26 12:53:27;;;;;;;0.10;0.10;;;15.70;55.60;;;;;;5031271;28;20200;-57
2023/08/26 12:55:58;;;;;;;0.00;0.00;;;15.60;55.60;;;;;;5034722;28;20202;-55
2023/08/26 12:58:29;;;;;;;0.10;0.10;;;15.60;55.60;;;;;;5015400;28;20580;-55
2023/08/26 13:01:00;;;;;;;0.10;0.10;;;15.60;55.60;;;;;;5027457;28;20667;-57
2023/08/26 13:03:32;;;;;;;0.00;0.00;;;15.60;55.60;;;;;;5034576;28;20648;-57
2023/08/26 13:06:03;;;;;;;0.10;0.10;;;15.60;55.60;;;;;;5034663;28;20239;-57
2023/08/26 13:08:34;;;;;;;0.10;0.10;;;15.60;55.60;;;;;;5034121;28;20239;-57
2023/08/26 13:11:04;;;;;;;0.10;0.10;;;15.60;55.60;;;;;;5034323;28;20200;-54